createdAt,value
2018-04-17T00:00:11.872Z,100770.56
2018-04-17T00:02:39.271Z,100777.22
2018-04-17T00:05:06.659Z,100772.39
2018-04-17T00:07:34.047Z,100784.06
2018-04-17T00:10:01.507Z,100781.24
2018-04-17T00:12:28.894Z,100779.46
2018-04-17T00:14:56.294Z,100779.11
2018-04-17T00:17:23.688Z,100780.03
2018-04-17T00:19:51.075Z,100784.79
2018-04-17T00:22:18.467Z,100779.11
2018-04-17T00:24:45.860Z,100786.28
2018-04-17T00:27:13.254Z,100777.84
2018-04-17T00:29:40.643Z,100780.38
2018-04-17T00:32:08.027Z,100779.00
2018-04-17T00:34:35.424Z,100774.78
2018-04-17T00:37:02.823Z,100776.42
2018-04-17T00:39:30.223Z,100772.64
2018-04-17T00:41:57.602Z,100773.09
2018-04-17T00:44:24.990Z,100776.06
2018-04-17T00:46:52.387Z,100779.16
2018-04-17T00:49:19.811Z,100785.68
2018-04-17T00:51:47.206Z,100794.98
2018-04-17T00:54:14.595Z,100799.66
2018-04-17T00:56:41.983Z,100795.42
2018-04-17T00:59:09.379Z,100800.83
2018-04-17T01:01:36.771Z,100793.41
2018-04-17T01:04:04.176Z,100800.30
2018-04-17T01:06:31.565Z,100797.76
2018-04-17T01:08:58.959Z,100799.48
2018-04-17T01:11:26.352Z,100798.19
2018-04-17T01:13:53.746Z,100804.70
2018-04-17T01:16:21.143Z,100806.42
2018-04-17T01:18:48.538Z,100806.95
2018-04-17T01:21:15.918Z,100809.68
2018-04-17T01:23:43.315Z,100816.34
2018-04-17T01:26:10.695Z,100815.64
2018-04-17T01:28:38.107Z,100814.13
2018-04-17T01:31:05.491Z,100815.56
2018-04-17T01:33:32.875Z,100827.13
2018-04-17T01:36:00.266Z,100821.45
2018-04-17T01:38:27.654Z,100825.59
2018-04-17T01:40:55.076Z,100826.11
2018-04-17T01:43:22.457Z,100824.53
2018-04-17T01:45:49.847Z,100830.97
2018-04-17T01:48:17.243Z,100828.95
2018-04-17T01:50:44.635Z,100831.56
2018-04-17T01:53:12.026Z,100833.38
2018-04-17T01:55:39.413Z,100838.06
2018-04-17T01:58:06.800Z,100834.98
2018-04-17T02:00:34.191Z,100839.80
2018-04-17T02:03:01.579Z,100839.46
2018-04-17T02:05:28.999Z,100838.10
2018-04-17T02:07:56.398Z,100843.92
2018-04-17T02:10:23.906Z,100841.57
2018-04-17T02:12:51.299Z,100845.14
2018-04-17T02:15:18.694Z,100844.80
2018-04-17T02:17:46.089Z,100846.09
2018-04-17T02:20:13.470Z,100850.34
2018-04-17T02:22:40.863Z,100858.39
2018-04-17T02:25:08.260Z,100863.44
2018-04-17T02:27:35.647Z,100865.92
2018-04-17T02:30:03.043Z,100868.23
2018-04-17T02:32:30.427Z,100871.14
2018-04-17T02:34:57.816Z,100873.06
2018-04-17T02:37:25.203Z,100867.50
2018-04-17T02:39:52.591Z,100878.34
2018-04-17T02:42:20.005Z,100877.44
2018-04-17T02:44:47.395Z,100882.64
2018-04-17T02:47:14.873Z,100878.16
2018-04-17T02:49:43.131Z,100887.27
2018-04-17T02:52:10.519Z,100885.16
2018-04-17T02:54:37.920Z,100887.86
2018-04-17T02:57:05.298Z,100890.52
2018-04-17T02:59:32.680Z,100892.62
2018-04-17T03:02:00.067Z,100890.20
2018-04-17T03:04:27.451Z,100887.80
2018-04-17T03:06:54.866Z,100890.50
2018-04-17T03:09:22.252Z,100897.41
2018-04-17T03:11:49.630Z,100896.46
2018-04-17T03:14:17.026Z,100890.38
2018-04-17T03:16:44.411Z,100894.52
2018-04-17T03:19:11.798Z,100893.36
2018-04-17T03:21:39.179Z,100894.23
2018-04-17T03:24:06.571Z,100888.16
2018-04-17T03:26:33.963Z,100892.66
2018-04-17T03:29:01.348Z,100894.41
2018-04-17T03:31:28.742Z,100885.38
2018-04-17T03:33:56.137Z,100892.07
2018-04-17T03:36:23.523Z,100885.42
2018-04-17T03:38:50.915Z,100888.36
2018-04-17T03:41:18.295Z,100885.52
2018-04-17T03:43:45.683Z,100892.07
2018-04-17T03:46:13.068Z,100889.64
2018-04-17T03:48:40.455Z,100883.70
2018-04-17T03:51:07.838Z,100881.56
2018-04-17T03:53:35.222Z,100882.67
2018-04-17T03:56:02.635Z,100881.68
2018-04-17T03:58:30.223Z,100883.61
2018-04-17T04:00:57.621Z,100887.34
2018-04-17T04:03:24.998Z,100885.06
2018-04-17T04:05:52.383Z,100895.48
2018-04-17T04:08:19.779Z,100896.34
2018-04-17T04:10:47.167Z,100892.88
2018-04-17T04:13:14.551Z,100893.47
2018-04-17T04:15:41.939Z,100901.07
2018-04-17T04:18:21.195Z,100898.63
2018-04-17T04:21:00.346Z,100897.58
2018-04-17T04:23:39.487Z,100907.63
2018-04-17T04:26:18.707Z,100896.36
2018-04-17T04:28:46.099Z,100904.06
2018-04-17T04:31:13.480Z,100906.73
2018-04-17T04:33:40.871Z,100917.63
2018-04-17T04:36:08.255Z,100912.04
2018-04-17T04:38:35.642Z,100919.11
2018-04-17T04:41:03.041Z,100919.17
2018-04-17T04:43:30.424Z,100922.94
2018-04-17T04:45:57.815Z,100921.02
2018-04-17T04:48:25.607Z,100924.27
2018-04-17T04:50:52.991Z,100928.41
2018-04-17T04:53:20.392Z,100932.66
2018-04-17T04:55:47.771Z,100930.32
2018-04-17T04:58:15.161Z,100932.88
2018-04-17T05:00:42.546Z,100935.05
2018-04-17T05:03:09.931Z,100941.27
2018-04-17T05:05:37.316Z,100936.47
2018-04-17T05:08:04.703Z,100943.65
2018-04-17T05:10:32.091Z,100948.35
2018-04-17T05:12:59.482Z,100952.98
2018-04-17T05:15:26.887Z,100952.19
2018-04-17T05:17:54.379Z,100964.67
2018-04-17T05:20:22.050Z,100973.89
2018-04-17T05:22:49.427Z,100980.70
2018-04-17T05:25:16.810Z,100982.31
2018-04-17T05:27:44.210Z,100989.21
2018-04-17T05:30:11.595Z,100984.92
2018-04-17T05:32:38.988Z,100990.07
2018-04-17T05:35:06.375Z,101000.81
2018-04-17T05:37:33.764Z,101001.92
2018-04-17T05:40:01.224Z,101010.48
2018-04-17T05:42:28.622Z,101014.25
2018-04-17T05:44:56.014Z,101021.00
2018-04-17T05:47:23.406Z,101029.89
2018-04-17T05:49:50.796Z,101036.64
2018-04-17T05:52:18.187Z,101045.69
2018-04-17T05:54:45.579Z,101051.14
2018-04-17T05:57:12.975Z,101054.30
2018-04-17T05:59:40.359Z,101056.88
2018-04-17T06:02:07.751Z,101055.80
2018-04-17T06:04:35.149Z,101063.75
2018-04-17T06:07:02.535Z,101063.91
2018-04-17T06:09:29.935Z,101071.13
2018-04-17T06:11:57.349Z,101071.17
2018-04-17T06:14:24.722Z,101077.80
2018-04-17T06:16:52.144Z,101082.48
2018-04-17T06:19:19.531Z,101076.98
2018-04-17T06:21:46.935Z,101077.16
2018-04-17T06:24:14.324Z,101077.62
2018-04-17T06:26:41.713Z,101077.72
2018-04-17T06:29:09.102Z,101081.62
2018-04-17T06:31:36.496Z,101084.53
2018-04-17T06:34:03.890Z,101083.87
2018-04-17T06:36:31.284Z,101094.08
2018-04-17T06:38:58.675Z,101091.72
2018-04-17T06:41:26.082Z,101098.46
2018-04-17T06:43:53.458Z,101099.34
2018-04-17T06:46:20.891Z,101096.49
2018-04-17T06:48:48.280Z,101097.78
2018-04-17T06:51:15.670Z,101095.39
2018-04-17T06:53:43.062Z,101100.23
2018-04-17T06:56:10.452Z,101098.05
2018-04-17T06:58:37.871Z,101097.43
2018-04-17T07:01:05.255Z,101103.09
2018-04-17T07:03:32.640Z,101104.14
2018-04-17T07:06:00.040Z,101106.92
2018-04-17T07:08:27.429Z,101112.09
2018-04-17T07:10:54.819Z,101113.91
2018-04-17T07:13:22.202Z,101118.91
2018-04-17T07:15:49.599Z,101125.03
2018-04-17T07:18:16.994Z,101122.09
2018-04-17T07:20:44.368Z,101122.94
2018-04-17T07:23:11.759Z,101122.05
2018-04-17T07:25:39.149Z,101121.98
2018-04-17T07:28:06.544Z,101129.28
2018-04-17T07:30:33.932Z,101130.72
2018-04-17T07:33:01.337Z,101140.34
2018-04-17T07:35:28.722Z,101132.11
2018-04-17T07:37:56.107Z,101137.30
2018-04-17T07:40:23.553Z,101140.37
2018-04-17T07:42:50.908Z,101140.99
2018-04-17T07:45:18.299Z,101141.22
2018-04-17T07:50:44.483Z,101144.51
2018-04-17T07:53:11.882Z,101144.80
2018-04-17T07:55:39.276Z,101154.40
2018-04-17T07:58:06.958Z,101155.11
2018-04-17T08:00:34.348Z,101155.19
2018-04-17T08:03:01.731Z,101159.50
2018-04-17T08:05:29.127Z,101162.46
2018-04-17T08:07:56.606Z,101156.22
2018-04-17T08:10:23.992Z,101163.86
2018-04-17T08:12:51.378Z,101168.76
2018-04-17T08:15:18.767Z,101169.94
2018-04-17T08:17:46.170Z,101167.48
2018-04-17T08:20:13.569Z,101179.50
2018-04-17T08:22:40.960Z,101185.51
2018-04-17T08:25:08.342Z,101184.28
2018-04-17T08:27:35.735Z,101181.43
2018-04-17T08:30:03.140Z,101182.41
2018-04-17T08:32:30.831Z,101179.14
2018-04-17T08:34:58.223Z,101182.23
2018-04-17T08:37:25.612Z,101176.65
2018-04-17T08:39:53.006Z,101180.89
2018-04-17T08:42:20.576Z,101182.45
2018-04-17T08:44:47.959Z,101189.03
2018-04-17T08:47:15.351Z,101189.27
2018-04-17T08:49:42.743Z,101184.05
2018-04-17T08:52:10.138Z,101185.31
2018-04-17T08:54:37.518Z,101190.66
2018-04-17T08:57:06.275Z,101190.38
2018-04-17T08:59:34.211Z,101179.23
2018-04-17T09:02:01.599Z,101180.50
2018-04-17T09:04:29.122Z,101177.76
2018-04-17T09:06:56.538Z,101172.54
2018-04-17T09:09:23.927Z,101166.81
2018-04-17T09:11:51.354Z,101173.13
2018-04-17T09:14:18.721Z,101175.36
2018-04-17T09:16:46.107Z,101170.48
2018-04-17T09:19:13.498Z,101167.83
2018-04-17T09:21:40.892Z,101169.57
2018-04-17T09:24:08.280Z,101173.27
2018-04-17T09:26:35.663Z,101179.30
2018-04-17T09:29:03.066Z,101176.79
2018-04-17T09:31:30.456Z,101174.79
2018-04-17T09:33:57.844Z,101177.83
2018-04-17T09:36:25.243Z,101181.23
2018-04-17T09:38:52.628Z,101181.09
2018-04-17T09:41:20.012Z,101181.75
2018-04-17T09:43:47.410Z,101178.88
2018-04-17T09:46:14.871Z,101181.91
2018-04-17T09:48:42.262Z,101176.23
2018-04-17T09:51:09.994Z,101182.10
2018-04-17T09:53:37.383Z,101182.67
2018-04-17T09:56:04.778Z,101171.25
2018-04-17T09:58:32.184Z,101167.66
2018-04-17T10:00:59.567Z,101168.13
2018-04-17T10:03:27.002Z,101174.80
2018-04-17T10:05:54.403Z,101167.43
2018-04-17T10:08:21.792Z,101167.84
2018-04-17T10:10:49.182Z,101171.76
2018-04-17T10:13:16.583Z,101163.28
2018-04-17T10:15:43.972Z,101170.55
2018-04-17T10:18:11.362Z,101164.61
2018-04-17T10:20:39.071Z,101170.62
2018-04-17T10:23:06.463Z,101168.13
2018-04-17T10:25:33.854Z,101167.78
2018-04-17T10:28:01.251Z,101170.97
2018-04-17T10:30:28.639Z,101163.80
2018-04-17T10:32:56.027Z,101167.17
2018-04-17T10:35:23.419Z,101161.91
2018-04-17T10:37:50.810Z,101153.39
2018-04-17T10:40:18.203Z,101163.27
2018-04-17T10:42:45.621Z,101158.86
2018-04-17T10:45:13.005Z,101156.25
2018-04-17T10:47:40.390Z,101157.69
2018-04-17T10:50:07.947Z,101159.39
2018-04-17T10:52:35.338Z,101153.95
2018-04-17T10:55:02.738Z,101152.70
2018-04-17T10:57:30.123Z,101155.63
2018-04-17T10:59:57.515Z,101152.08
2018-04-17T11:02:24.900Z,101156.77
2018-04-17T11:04:52.329Z,101151.80
2018-04-17T11:07:19.684Z,101147.95
2018-04-17T11:09:47.074Z,101150.21
2018-04-17T11:12:14.459Z,101143.48
2018-04-17T11:14:41.855Z,101151.23
2018-04-17T11:17:09.238Z,101141.23
2018-04-17T11:19:36.635Z,101142.87
2018-04-17T11:22:04.023Z,101145.52
2018-04-17T11:24:31.425Z,101144.81
2018-04-17T11:26:58.807Z,101140.80
2018-04-17T11:29:26.211Z,101142.55
2018-04-17T11:31:53.602Z,101141.38
2018-04-17T11:34:20.996Z,101143.84
2018-04-17T11:36:48.387Z,101130.14
2018-04-17T11:39:15.788Z,101136.33
2018-04-17T11:41:43.208Z,101139.00
2018-04-17T11:44:10.563Z,101139.00
2018-04-17T11:46:37.955Z,101145.54
2018-04-17T11:49:05.340Z,101138.41
2018-04-17T11:51:32.736Z,101146.53
2018-04-17T11:54:00.119Z,101150.22
2018-04-17T11:56:27.512Z,101152.39
2018-04-17T11:58:54.895Z,101148.95
2018-04-17T12:01:22.287Z,101150.24
2018-04-17T12:03:49.672Z,101152.86
2018-04-17T12:06:17.065Z,101146.53
2018-04-17T12:08:44.447Z,101143.02
2018-04-17T12:11:11.839Z,101142.48
2018-04-17T12:13:39.229Z,101134.89
2018-04-17T12:16:06.624Z,101137.17
2018-04-17T12:18:34.086Z,101136.77
2018-04-17T12:21:01.487Z,101130.50
2018-04-17T12:23:28.875Z,101124.38
2018-04-17T12:25:56.278Z,101132.66
2018-04-17T12:28:23.666Z,101137.33
2018-04-17T12:30:51.052Z,101135.74
2018-04-17T12:33:18.443Z,101127.70
2018-04-17T12:35:45.835Z,101125.34
2018-04-17T12:38:13.228Z,101125.58
2018-04-17T12:40:40.738Z,101133.98
2018-04-17T12:43:08.131Z,101138.25
2018-04-17T12:45:35.518Z,101127.69
2018-04-17T12:48:02.911Z,101131.92
2018-04-17T12:50:30.299Z,101132.13
2018-04-17T12:52:57.692Z,101123.52
2018-04-17T12:55:25.079Z,101125.62
2018-04-17T12:57:52.471Z,101118.46
2018-04-17T13:00:19.859Z,101117.23
2018-04-17T13:02:47.255Z,101109.71
2018-04-17T13:05:14.640Z,101108.48
2018-04-17T13:07:42.097Z,101116.84
2018-04-17T13:10:09.423Z,101112.86
2018-04-17T13:12:36.810Z,101114.81
2018-04-17T13:15:04.203Z,101115.94
2018-04-17T13:17:31.595Z,101119.20
2018-04-17T13:19:58.983Z,101113.37
2018-04-17T13:22:26.559Z,101116.48
2018-04-17T13:24:53.952Z,101111.98
2018-04-17T13:27:21.352Z,101128.19
2018-04-17T13:29:48.745Z,101116.38
2018-04-17T13:32:16.175Z,101106.83
2018-04-17T13:34:43.567Z,101104.98
2018-04-17T13:37:10.961Z,101113.77
2018-04-17T13:39:38.353Z,101112.94
2018-04-17T13:42:05.755Z,101099.91
2018-04-17T13:44:33.151Z,101104.23
2018-04-17T13:47:00.547Z,101102.42
2018-04-17T13:49:27.946Z,101104.66
2018-04-17T13:51:55.957Z,101106.44
2018-04-17T13:54:23.339Z,101105.80
2018-04-17T13:56:50.730Z,101103.12
2018-04-17T13:59:18.119Z,101094.65
2018-04-17T14:01:45.507Z,101089.69
2018-04-17T14:04:12.899Z,101088.02
2018-04-17T14:06:40.295Z,101083.89
2018-04-17T14:09:07.690Z,101069.06
2018-04-17T14:11:35.087Z,101076.90
2018-04-17T14:14:02.479Z,101083.62
2018-04-17T14:16:29.867Z,101076.70
2018-04-17T14:18:57.263Z,101076.45
2018-04-17T14:21:24.655Z,101071.83
2018-04-17T14:23:52.043Z,101074.09
2018-04-17T14:26:19.437Z,101071.47
2018-04-17T14:28:46.823Z,101069.75
2018-04-17T14:31:14.215Z,101077.89
2018-04-17T14:33:41.603Z,101077.94
2018-04-17T14:36:09.022Z,101076.73
2018-04-17T14:38:36.418Z,101077.95
2018-04-17T14:41:03.815Z,101085.55
2018-04-17T14:43:31.203Z,101090.50
2018-04-17T14:45:58.596Z,101082.13
2018-04-17T14:48:26.077Z,101092.89
2018-04-17T14:50:53.459Z,101102.91
2018-04-17T14:53:20.855Z,101096.91
2018-04-17T14:55:48.262Z,101096.00
2018-04-17T14:58:15.833Z,101101.08
2018-04-17T15:00:43.227Z,101095.29
2018-04-17T15:03:10.628Z,101096.66
2018-04-17T15:05:38.015Z,101093.24
2018-04-17T15:08:05.410Z,101091.61
2018-04-17T15:10:32.874Z,101093.96
2018-04-17T15:13:00.276Z,101101.42
2018-04-17T15:15:27.659Z,101095.21
2018-04-17T15:17:55.042Z,101098.77
2018-04-17T15:20:22.974Z,101102.06
2018-04-17T15:22:50.591Z,101101.56
2018-04-17T15:25:18.001Z,101104.41
2018-04-17T15:27:45.388Z,101095.81
2018-04-17T15:30:12.790Z,101099.48
2018-04-17T15:32:40.168Z,101098.92
2018-04-17T15:35:07.565Z,101090.33
2018-04-17T15:37:35.015Z,101103.98
2018-04-17T15:40:02.414Z,101100.75
2018-04-17T15:42:29.807Z,101101.67
2018-04-17T15:44:57.199Z,101105.08
2018-04-17T15:47:24.591Z,101114.13
2018-04-17T15:49:51.996Z,101111.92
2018-04-17T15:52:19.379Z,101111.95
2018-04-17T15:54:46.768Z,101107.42
2018-04-17T15:57:14.174Z,101105.64
2018-04-17T15:59:41.579Z,101106.89
2018-04-17T16:02:08.975Z,101103.33
2018-04-17T16:04:36.367Z,101105.77
2018-04-17T16:07:03.763Z,101108.94
2018-04-17T16:09:31.155Z,101111.11
2018-04-17T16:11:58.548Z,101117.39
2018-04-17T16:14:25.935Z,101115.78
2018-04-17T16:16:53.327Z,101111.14
2018-04-17T16:19:20.718Z,101108.80
2018-04-17T16:21:48.111Z,101111.80
2018-04-17T16:24:15.503Z,101104.72
2018-04-17T16:26:42.895Z,101106.78
2018-04-17T16:29:10.279Z,101107.46
2018-04-17T16:31:37.675Z,101111.01
2018-04-17T16:34:05.067Z,101111.30
2018-04-17T16:36:32.459Z,101106.02
2018-04-17T16:38:59.857Z,101103.17
2018-04-17T16:41:27.248Z,101106.44
2018-04-17T16:43:54.700Z,101103.98
2018-04-17T16:46:22.151Z,101107.80
2018-04-17T16:48:49.543Z,101111.50
2018-04-17T16:51:17.133Z,101104.83
2018-04-17T16:53:44.502Z,101109.71
2018-04-17T16:56:11.890Z,101112.03
2018-04-17T16:58:39.286Z,101111.65
2018-04-17T17:01:06.674Z,101107.66
2018-04-17T17:03:34.070Z,101109.58
2018-04-17T17:06:01.457Z,101109.58
2018-04-17T17:08:28.848Z,101118.55
2018-04-17T17:10:56.235Z,101121.41
2018-04-17T17:13:23.627Z,101124.68
2018-04-17T17:15:51.027Z,101125.89
2018-04-17T17:18:18.418Z,101132.71
2018-04-17T17:20:45.820Z,101133.38
2018-04-17T17:23:13.206Z,101135.55
2018-04-17T17:25:40.604Z,101143.45
2018-04-17T17:28:08.109Z,101147.23
2018-04-17T17:30:35.486Z,101144.53
2018-04-17T17:33:02.871Z,101144.38
2018-04-17T17:35:30.272Z,101145.58
2018-04-17T17:37:57.650Z,101154.55
2018-04-17T17:40:25.052Z,101153.05
2018-04-17T17:42:52.440Z,101150.03
2018-04-17T17:45:19.839Z,101152.19
2018-04-17T17:47:47.225Z,101150.65
2018-04-17T17:50:14.727Z,101154.84
2018-04-17T17:52:42.116Z,101161.32
2018-04-17T17:55:09.499Z,101157.72
2018-04-17T17:57:36.895Z,101156.86
2018-04-17T18:00:04.286Z,101158.58
2018-04-17T18:02:31.684Z,101163.23
2018-04-17T18:04:59.155Z,101165.53
2018-04-17T18:07:26.498Z,101172.91
2018-04-17T18:09:53.890Z,101169.83
2018-04-17T18:12:21.347Z,101170.53
2018-04-17T18:14:48.679Z,101167.06
2018-04-17T18:17:16.071Z,101180.17
2018-04-17T18:19:43.539Z,101182.35
2018-04-17T18:22:10.863Z,101187.52
2018-04-17T18:24:38.251Z,101185.09
2018-04-17T18:27:05.638Z,101186.70
2018-04-17T18:29:33.031Z,101195.48
2018-04-17T18:32:00.444Z,101193.47
2018-04-17T18:34:27.811Z,101192.22
2018-04-17T18:36:55.199Z,101195.05
2018-04-17T18:39:22.611Z,101196.63
2018-04-17T18:41:50.006Z,101192.54
2018-04-17T18:44:17.413Z,101199.00
2018-04-17T18:46:44.971Z,101204.38
2018-04-17T18:49:12.404Z,101214.80
2018-04-17T18:51:39.860Z,101213.89
2018-04-17T18:54:07.247Z,101213.58
2018-04-17T18:56:34.635Z,101214.09
2018-04-17T18:59:02.052Z,101220.39
2018-04-17T19:01:29.448Z,101226.86
2018-04-17T19:03:56.879Z,101227.36
2018-04-17T19:06:24.276Z,101233.69
2018-04-17T19:08:51.675Z,101235.26
2018-04-17T19:11:19.063Z,101235.47
2018-04-17T19:13:46.473Z,101239.79
2018-04-17T19:16:13.847Z,101243.84
2018-04-17T19:18:41.235Z,101243.95
2018-04-17T19:21:08.619Z,101253.30
2018-04-17T19:23:36.003Z,101255.98
2018-04-17T19:26:03.402Z,101249.48
2018-04-17T19:28:30.785Z,101253.02
2018-04-17T19:30:58.177Z,101254.06
2018-04-17T19:33:25.555Z,101261.35
2018-04-17T19:35:53.003Z,101258.58
2018-04-17T19:38:20.391Z,101262.58
2018-04-17T19:40:47.787Z,101266.50
2018-04-17T19:43:15.171Z,101266.34
2018-04-17T19:45:42.615Z,101268.97
2018-04-17T19:48:09.987Z,101273.56
2018-04-17T19:50:37.383Z,101278.02
2018-04-17T19:53:04.771Z,101273.73
2018-04-17T19:55:32.171Z,101277.41
2018-04-17T19:57:59.563Z,101281.39
2018-04-17T20:00:26.951Z,101278.81
2018-04-17T20:02:54.345Z,101282.62
2018-04-17T20:05:21.723Z,101278.99
2018-04-17T20:07:49.118Z,101278.92
2018-04-17T20:10:16.507Z,101286.80
2018-04-17T20:12:43.898Z,101291.60
2018-04-17T20:15:11.289Z,101287.48
2018-04-17T20:17:38.683Z,101289.47
2018-04-17T20:20:06.064Z,101299.09
2018-04-17T20:22:33.458Z,101292.53
2018-04-17T20:25:00.851Z,101294.55
2018-04-17T20:27:28.238Z,101300.28
2018-04-17T20:29:55.619Z,101303.33
2018-04-17T20:32:23.026Z,101305.81
2018-04-17T20:34:50.422Z,101305.52
2018-04-17T20:37:17.810Z,101304.73
2018-04-17T20:39:45.210Z,101306.92
2018-04-17T20:42:12.624Z,101304.69
2018-04-17T20:44:40.237Z,101306.88
2018-04-17T20:47:07.648Z,101307.92
2018-04-17T20:49:35.039Z,101316.30
2018-04-17T20:52:02.426Z,101321.33
2018-04-17T20:54:29.822Z,101319.75
2018-04-17T20:56:57.215Z,101324.19
2018-04-17T20:59:24.605Z,101325.41
2018-04-17T21:01:52.020Z,101324.22
2018-04-17T21:04:19.405Z,101326.84
2018-04-17T21:06:46.787Z,101329.83
2018-04-17T21:09:14.179Z,101323.17
2018-04-17T21:11:41.563Z,101320.99
2018-04-17T21:14:08.955Z,101322.87
2018-04-17T21:16:36.340Z,101328.24
2018-04-17T21:19:04.059Z,101323.56
2018-04-17T21:21:31.515Z,101324.72
2018-04-17T21:23:58.907Z,101321.37
2018-04-17T21:26:26.303Z,101329.13
2018-04-17T21:28:53.691Z,101333.55
2018-04-17T21:31:21.084Z,101337.28
2018-04-17T21:33:48.475Z,101341.42
2018-04-17T21:36:15.871Z,101335.93
2018-04-17T21:38:43.371Z,101341.52
2018-04-17T21:41:10.773Z,101343.17
2018-04-17T21:43:38.155Z,101346.92
2018-04-17T21:46:05.547Z,101344.00
2018-04-17T21:48:32.930Z,101351.36
2018-04-17T21:51:00.323Z,101358.12
2018-04-17T21:53:27.720Z,101362.59
2018-04-17T21:55:55.114Z,101365.70
2018-04-17T21:58:22.505Z,101358.27
2018-04-17T22:00:49.890Z,101368.62
2018-04-17T22:03:17.283Z,101367.12
2018-04-17T22:05:44.667Z,101375.08
2018-04-17T22:08:12.059Z,101378.25
2018-04-17T22:10:39.443Z,101375.13
2018-04-17T22:13:06.835Z,101380.13
2018-04-17T22:15:34.227Z,101386.96
2018-04-17T22:18:01.622Z,101384.97
2018-04-17T22:20:29.007Z,101386.22
2018-04-17T22:22:56.439Z,101390.68
2018-04-17T22:25:23.827Z,101384.59
2018-04-17T22:27:51.219Z,101389.27
2018-04-17T22:30:18.607Z,101386.52
2018-04-17T22:32:45.995Z,101395.09
2018-04-17T22:35:13.387Z,101396.75
2018-04-17T22:37:40.787Z,101400.72
2018-04-17T22:40:08.179Z,101401.22
2018-04-17T22:42:35.567Z,101406.25
2018-04-17T22:45:02.975Z,101410.12
2018-04-17T22:47:30.360Z,101414.62
2018-04-17T22:49:57.752Z,101412.25
2018-04-17T22:52:25.147Z,101418.34
2018-04-17T22:54:52.535Z,101415.55
2018-04-17T22:57:19.918Z,101418.97
2018-04-17T22:59:47.318Z,101417.84
2018-04-17T23:02:14.699Z,101417.85
2018-04-17T23:04:42.091Z,101420.23
2018-04-17T23:07:09.474Z,101421.04
2018-04-17T23:09:36.866Z,101428.78
2018-04-17T23:12:04.255Z,101430.66
2018-04-17T23:14:31.665Z,101425.91
2018-04-17T23:16:59.035Z,101422.00
2018-04-17T23:19:26.441Z,101430.96
2018-04-17T23:21:53.826Z,101426.82
2018-04-17T23:24:21.223Z,101429.12
2018-04-17T23:26:48.619Z,101434.67
2018-04-17T23:29:16.007Z,101436.43
2018-04-17T23:31:43.399Z,101434.78
2018-04-17T23:34:10.782Z,101436.50
2018-04-17T23:36:38.175Z,101443.21
2018-04-17T23:39:05.560Z,101446.73
2018-04-17T23:41:32.955Z,101443.94
2018-04-17T23:44:00.338Z,101443.31
2018-04-17T23:46:27.747Z,101442.80
2018-04-17T23:48:55.140Z,101448.77
2018-04-17T23:51:22.531Z,101447.73
2018-04-17T23:53:49.920Z,101448.56
2018-04-17T23:56:17.315Z,101448.97
2018-04-17T23:58:44.699Z,101447.93
